Time;durP1;ratioP1;P1;durP2;ratioP2;P2;SDS_P1;SDS_P2;PMS_P1;PMS_P2;Temp;Humidity;BMP_temperature;BMP_pressure;BME280_temperature;BME280_humidity;BME280_pressure;Samples;Min_cycle;Max_cycle;Signal;HPM_P1;HPM_P2
2022/10/10 00:00:41;;;;;;;2.92;1.23;;;9.20;99.90;;;;;;5012077;28;20057;-72
2022/10/10 00:03:07;;;;;;;1.52;1.00;;;9.20;99.90;;;;;;5007618;28;20065;-72
2022/10/10 00:05:33;;;;;;;2.13;1.30;;;9.20;99.90;;;;;;5011836;28;20617;-72
2022/10/10 00:07:59;;;;;;;6.30;1.20;;;9.20;99.90;;;;;;5013872;28;20072;-73
2022/10/10 00:10:25;;;;;;;2.25;1.02;;;9.20;99.90;;;;;;5008528;28;20487;-72
2022/10/10 00:12:51;;;;;;;1.52;1.10;;;9.20;99.90;;;;;;5007797;28;20144;-73
2022/10/10 00:15:17;;;;;;;2.03;1.30;;;9.10;99.90;;;;;;5007961;28;20049;-73
2022/10/10 00:17:42;;;;;;;3.75;1.20;;;9.10;99.90;;;;;;5005116;28;20160;-73
2022/10/10 00:20:11;;;;;;;1.77;1.05;;;9.00;99.90;;;;;;5005465;28;20502;-73
2022/10/10 00:22:36;;;;;;;1.65;1.05;;;9.00;99.90;;;;;;5012804;28;20033;-72
2022/10/10 00:25:03;;;;;;;1.90;1.20;;;9.00;99.90;;;;;;5012915;28;20056;-73
2022/10/10 00:27:28;;;;;;;5.10;1.25;;;8.90;99.90;;;;;;5004718;28;20080;-72
2022/10/10 00:29:54;;;;;;;2.47;1.17;;;8.90;99.90;;;;;;5010530;28;20470;-72
2022/10/10 00:32:20;;;;;;;2.47;1.13;;;8.90;99.90;;;;;;5006037;28;21723;-72
2022/10/10 00:34:45;;;;;;;9.50;1.27;;;8.90;99.90;;;;;;5008570;28;20045;-72
2022/10/10 00:37:11;;;;;;;2.42;1.10;;;8.80;99.90;;;;;;5009503;28;20041;-72
2022/10/10 00:39:36;;;;;;;5.60;1.63;;;8.80;99.90;;;;;;5007141;28;20052;-73
2022/10/10 00:42:02;;;;;;;7.13;1.42;;;8.80;99.90;;;;;;5006248;28;20161;-72
2022/10/10 00:44:27;;;;;;;2.05;0.95;;;8.70;99.90;;;;;;4993492;28;20045;-72
2022/10/10 00:46:53;;;;;;;1.70;1.23;;;8.70;99.90;;;;;;4990626;28;20037;-72
2022/10/10 00:49:24;;;;;;;2.72;1.27;;;8.70;99.90;;;;;;5024624;28;20518;-72
2022/10/10 00:51:53;;;;;;;1.88;0.95;;;8.70;99.90;;;;;;4990099;28;20071;-72
2022/10/10 00:54:22;;;;;;;2.28;1.10;;;8.70;99.90;;;;;;5011259;28;20485;-72
2022/10/10 00:56:56;;;;;;;2.50;1.27;;;8.70;99.90;;;;;;5009264;28;20594;-72
2022/10/10 00:59:23;;;;;;;2.35;1.20;;;8.70;99.90;;;;;;5008674;28;20538;-73
2022/10/10 01:01:49;;;;;;;2.67;1.10;;;8.70;99.90;;;;;;5011314;28;20040;-72
2022/10/10 01:04:47;;;;;;;2.85;0.98;;;8.80;99.90;;;;;;5010918;28;20583;-72
2022/10/10 01:07:17;;;;;;;5.65;1.60;;;8.80;99.90;;;;;;5001950;28;20072;-72
2022/10/10 01:09:45;;;;;;;3.30;1.40;;;8.80;99.90;;;;;;5008934;28;20046;-72
2022/10/10 01:12:35;;;;;;;2.30;1.13;;;8.80;99.90;;;;;;5025108;28;20060;-72
2022/10/10 01:15:05;;;;;;;4.95;1.50;;;8.80;99.90;;;;;;5008164;28;20108;-73
2022/10/10 01:17:44;;;;;;;4.03;1.65;;;8.80;99.90;;;;;;5004224;28;20538;-73
2022/10/10 01:20:34;;;;;;;3.22;1.42;;;8.80;99.90;;;;;;5006744;28;20408;-72
2022/10/10 01:23:26;;;;;;;2.25;1.20;;;8.80;99.90;;;;;;5009750;28;20045;-72
2022/10/10 01:26:33;;;;;;;6.15;1.42;;;8.80;99.90;;;;;;5006355;28;20045;-72
2022/10/10 01:29:21;;;;;;;1.98;1.20;;;8.80;99.90;;;;;;5011428;28;20059;-72
2022/10/10 01:31:53;;;;;;;2.58;1.40;;;8.80;99.90;;;;;;5009072;28;20068;-73
2022/10/10 01:34:29;;;;;;;2.03;1.10;;;8.70;99.90;;;;;;5011676;28;20049;-72
2022/10/10 01:37:11;;;;;;;2.35;1.38;;;8.70;99.90;;;;;;4996372;28;20726;-73
2022/10/10 01:39:59;;;;;;;2.85;1.38;;;8.70;99.90;;;;;;4999380;28;20079;-72
2022/10/10 01:42:38;;;;;;;2.65;1.17;;;8.70;99.90;;;;;;5010200;28;20033;-72
2022/10/10 01:45:04;;;;;;;2.05;1.42;;;8.70;99.90;;;;;;5008887;28;20045;-72
2022/10/10 01:47:30;;;;;;;2.13;1.55;;;8.70;99.90;;;;;;5006569;28;20404;-72
2022/10/10 01:50:01;;;;;;;2.80;1.25;;;8.70;99.90;;;;;;4999649;28;20056;-72
2022/10/10 01:52:36;;;;;;;1.77;1.00;;;8.70;99.90;;;;;;5011782;28;20034;-72
2022/10/10 01:55:16;;;;;;;3.70;1.55;;;8.70;99.90;;;;;;5006452;28;20718;-72
2022/10/10 01:57:58;;;;;;;1.48;1.00;;;8.70;99.90;;;;;;5007639;28;20728;-72
2022/10/10 02:00:24;;;;;;;3.30;1.70;;;8.80;99.90;;;;;;5008362;28;20381;-73
2022/10/10 02:03:12;;;;;;;2.67;1.20;;;8.80;99.90;;;;;;5011209;28;20103;-73
2022/10/10 02:05:52;;;;;;;1.70;1.05;;;8.80;99.90;;;;;;5015991;28;20125;-72
2022/10/10 02:08:37;;;;;;;2.22;0.95;;;8.80;99.90;;;;;;5007960;28;20504;-72
2022/10/10 02:11:09;;;;;;;2.67;1.30;;;8.80;99.90;;;;;;5010532;28;20049;-72
2022/10/10 02:13:46;;;;;;;3.00;1.33;;;8.90;99.90;;;;;;4999428;28;20037;-72
2022/10/10 02:16:17;;;;;;;2.05;1.17;;;8.90;99.90;;;;;;5009560;28;20045;-72
2022/10/10 02:18:45;;;;;;;5.00;1.65;;;8.90;99.90;;;;;;5030583;28;20295;-72
2022/10/10 02:21:13;;;;;;;2.22;1.42;;;8.90;99.90;;;;;;5011439;28;20057;-72
2022/10/10 02:23:45;;;;;;;2.95;1.50;;;8.90;99.90;;;;;;5013852;28;20511;-72
2022/10/10 02:26:13;;;;;;;7.32;2.10;;;8.90;99.90;;;;;;5011513;28;20565;-72
2022/10/10 02:28:47;;;;;;;2.83;1.50;;;8.90;99.90;;;;;;5028073;28;20049;-72
2022/10/10 02:31:32;;;;;;;4.65;1.80;;;8.90;99.90;;;;;;5008295;28;20056;-73
2022/10/10 02:34:16;;;;;;;3.70;1.73;;;8.90;99.90;;;;;;5010020;28;20037;-72
2022/10/10 02:36:45;;;;;;;2.92;1.60;;;8.90;99.90;;;;;;5015864;28;20056;-72
2022/10/10 02:39:13;;;;;;;2.67;1.50;;;8.90;99.90;;;;;;5027981;28;20037;-72
2022/10/10 02:41:41;;;;;;;2.25;1.13;;;8.90;99.90;;;;;;5010137;28;20262;-73
2022/10/10 02:44:07;;;;;;;3.10;1.73;;;8.90;99.90;;;;;;5005491;28;20041;-72
2022/10/10 02:46:32;;;;;;;5.18;1.65;;;8.90;99.90;;;;;;5012929;28;20072;-73
2022/10/10 02:49:00;;;;;;;2.42;1.30;;;8.90;99.90;;;;;;4994795;28;20134;-72
2022/10/10 02:51:26;;;;;;;6.32;1.30;;;8.90;99.90;;;;;;5014882;28;20127;-72
2022/10/10 02:53:51;;;;;;;2.97;1.13;;;8.90;99.90;;;;;;5013396;28;20586;-73
2022/10/10 02:56:17;;;;;;;3.47;1.55;;;8.90;99.90;;;;;;5005954;28;20033;-72
2022/10/10 02:58:42;;;;;;;3.38;1.58;;;8.90;99.90;;;;;;5008160;28;20133;-72
2022/10/10 03:01:09;;;;;;;3.08;1.70;;;8.90;99.90;;;;;;5008501;28;20399;-73
2022/10/10 03:03:35;;;;;;;2.47;1.55;;;8.90;99.90;;;;;;4995258;28;20125;-73
2022/10/10 03:06:01;;;;;;;3.65;1.70;;;8.90;99.90;;;;;;5012756;28;20043;-73
2022/10/10 03:08:27;;;;;;;3.58;1.70;;;8.90;99.90;;;;;;5007000;28;20148;-73
2022/10/10 03:10:54;;;;;;;3.42;1.88;;;8.90;99.90;;;;;;5007962;28;20503;-73
2022/10/10 03:13:20;;;;;;;3.78;1.85;;;8.90;99.90;;;;;;5004090;28;20132;-73
2022/10/10 03:15:45;;;;;;;2.80;1.50;;;8.90;99.90;;;;;;5010537;28;20136;-73
2022/10/10 03:18:11;;;;;;;2.38;1.50;;;8.90;99.90;;;;;;5029432;28;20077;-73
2022/10/10 03:20:36;;;;;;;3.58;1.55;;;8.90;99.90;;;;;;5011701;28;20130;-72
2022/10/10 03:23:02;;;;;;;2.63;1.52;;;8.90;99.90;;;;;;5006144;28;20029;-72
2022/10/10 03:25:28;;;;;;;3.88;1.95;;;8.90;99.90;;;;;;5007239;28;20129;-72
2022/10/10 03:27:53;;;;;;;3.10;1.67;;;8.90;99.90;;;;;;5007276;28;20056;-73
2022/10/10 03:30:19;;;;;;;3.10;1.88;;;8.90;99.90;;;;;;5022553;28;20049;-73
2022/10/10 03:32:44;;;;;;;6.32;2.03;;;8.80;99.90;;;;;;4996293;28;20451;-73
2022/10/10 03:35:10;;;;;;;9.07;1.98;;;8.90;99.90;;;;;;5012729;28;20048;-73
2022/10/10 03:37:35;;;;;;;6.05;1.67;;;8.80;99.90;;;;;;5005996;28;20029;-72
2022/10/10 03:40:01;;;;;;;2.90;1.27;;;8.80;99.90;;;;;;4996611;28;21017;-72
2022/10/10 03:42:26;;;;;;;2.72;1.52;;;8.80;99.90;;;;;;5010174;28;21687;-73
2022/10/10 03:44:52;;;;;;;4.05;1.40;;;8.80;99.90;;;;;;5008459;28;20037;-73
2022/10/10 03:47:17;;;;;;;2.97;1.77;;;8.80;99.90;;;;;;4995063;28;20095;-73
2022/10/10 03:49:43;;;;;;;4.30;1.60;;;8.80;99.90;;;;;;5008907;28;20037;-73
2022/10/10 03:52:08;;;;;;;3.97;2.10;;;8.80;99.90;;;;;;5009558;28;20478;-73
2022/10/10 03:54:34;;;;;;;4.32;2.00;;;8.80;99.90;;;;;;5008282;28;20111;-73
2022/10/10 03:57:00;;;;;;;2.92;1.50;;;8.80;99.90;;;;;;4988285;28;20761;-73
2022/10/10 03:59:25;;;;;;;3.47;1.60;;;8.80;99.90;;;;;;4986855;28;20106;-73
2022/10/10 04:01:51;;;;;;;3.78;1.65;;;8.80;99.90;;;;;;5004408;28;20128;-73
2022/10/10 04:04:17;;;;;;;3.03;1.50;;;8.80;99.90;;;;;;5010620;28;20618;-73
2022/10/10 04:06:42;;;;;;;3.15;1.70;;;8.80;99.90;;;;;;5010671;28;20034;-73
2022/10/10 04:09:08;;;;;;;3.00;1.58;;;8.70;99.90;;;;;;4996166;28;20057;-72
2022/10/10 04:11:35;;;;;;;3.95;1.85;;;8.70;99.90;;;;;;5010039;28;20400;-73
2022/10/10 04:14:01;;;;;;;7.00;2.13;;;8.70;99.90;;;;;;5010935;28;20172;-72
2022/10/10 04:16:26;;;;;;;3.63;1.60;;;8.70;99.90;;;;;;5005869;28;20033;-73
2022/10/10 04:18:52;;;;;;;4.13;2.03;;;8.70;99.90;;;;;;5009576;28;20048;-73
2022/10/10 04:21:18;;;;;;;3.25;1.65;;;8.70;99.90;;;;;;5007439;28;20042;-73
2022/10/10 04:23:43;;;;;;;3.70;1.60;;;8.70;99.90;;;;;;5012984;28;20045;-73
2022/10/10 04:26:09;;;;;;;2.95;1.60;;;8.70;99.90;;;;;;5011641;28;20033;-73
2022/10/10 04:28:34;;;;;;;2.47;1.70;;;8.60;99.90;;;;;;5007941;28;20041;-73
2022/10/10 04:31:00;;;;;;;2.03;1.45;;;8.70;99.90;;;;;;5011854;28;20461;-73
2022/10/10 04:33:25;;;;;;;2.90;1.50;;;8.60;99.90;;;;;;5008377;28;20052;-73
2022/10/10 04:35:51;;;;;;;3.10;1.70;;;8.60;99.90;;;;;;4993037;28;20045;-73
2022/10/10 04:38:18;;;;;;;4.05;1.88;;;8.60;99.90;;;;;;5009555;28;20397;-73
2022/10/10 04:40:46;;;;;;;6.88;2.20;;;8.60;99.90;;;;;;5005383;28;20026;-73
2022/10/10 04:43:12;;;;;;;2.63;1.55;;;8.60;99.90;;;;;;5007093;28;20066;-73
2022/10/10 04:45:37;;;;;;;3.70;1.98;;;8.60;99.90;;;;;;5009518;28;20911;-73
2022/10/10 04:48:03;;;;;;;2.92;1.85;;;8.60;99.90;;;;;;4996006;28;20119;-73
2022/10/10 04:50:29;;;;;;;3.55;1.67;;;8.60;99.90;;;;;;5007212;28;20621;-72
2022/10/10 04:52:54;;;;;;;4.10;2.10;;;8.60;99.90;;;;;;5006321;28;20057;-72
2022/10/10 04:55:20;;;;;;;2.85;1.77;;;8.60;99.90;;;;;;4992240;28;20045;-72
2022/10/10 04:57:46;;;;;;;2.30;1.38;;;8.60;99.90;;;;;;5007880;28;20092;-73
2022/10/10 05:00:12;;;;;;;3.08;1.55;;;8.60;99.90;;;;;;5013569;28;20038;-72
2022/10/10 05:02:38;;;;;;;3.58;1.38;;;8.60;99.90;;;;;;5012335;28;20483;-72
2022/10/10 05:05:04;;;;;;;4.30;1.98;;;8.50;99.90;;;;;;5014208;28;20032;-73
2022/10/10 05:07:29;;;;;;;2.75;1.67;;;8.50;99.90;;;;;;5009650;28;20512;-72
2022/10/10 05:09:55;;;;;;;5.45;2.17;;;8.60;99.90;;;;;;5009864;28;21353;-72
2022/10/10 05:12:20;;;;;;;2.45;1.33;;;8.50;99.90;;;;;;5009525;28;20040;-73
2022/10/10 05:14:46;;;;;;;3.72;2.15;;;8.50;99.90;;;;;;5013196;28;20507;-72
2022/10/10 05:17:11;;;;;;;2.90;1.52;;;8.50;99.90;;;;;;5012373;28;20045;-73
2022/10/10 05:19:37;;;;;;;3.22;1.67;;;8.50;99.90;;;;;;5016364;28;20034;-72
2022/10/10 05:22:03;;;;;;;4.43;1.88;;;8.50;99.90;;;;;;5011085;28;20143;-72
2022/10/10 05:24:28;;;;;;;2.50;1.38;;;8.50;99.90;;;;;;5010875;28;20124;-72
2022/10/10 05:26:54;;;;;;;3.38;1.60;;;8.50;99.90;;;;;;5010363;28;20037;-72
2022/10/10 05:29:19;;;;;;;4.85;1.77;;;8.50;99.90;;;;;;5009203;28;20059;-72
2022/10/10 05:31:45;;;;;;;5.45;2.00;;;8.50;99.90;;;;;;5012572;28;20407;-72
2022/10/10 05:34:14;;;;;;;2.88;1.33;;;8.50;99.90;;;;;;5013575;28;20046;-72
2022/10/10 05:36:40;;;;;;;4.45;2.55;;;8.50;99.90;;;;;;5008120;28;20100;-72
2022/10/10 05:39:06;;;;;;;6.18;2.00;;;8.50;99.90;;;;;;5012612;28;20446;-73
2022/10/10 05:41:32;;;;;;;4.85;1.90;;;8.50;99.90;;;;;;5012503;28;20046;-73
2022/10/10 05:43:57;;;;;;;5.18;1.92;;;8.50;99.90;;;;;;5014121;28;20034;-72
2022/10/10 05:46:25;;;;;;;3.45;2.08;;;8.50;99.90;;;;;;5010930;28;20462;-72
2022/10/10 05:48:52;;;;;;;4.28;1.98;;;8.50;99.90;;;;;;5023755;28;20041;-72
2022/10/10 05:51:18;;;;;;;7.78;2.20;;;8.50;99.90;;;;;;5012501;28;20049;-72
2022/10/10 05:53:45;;;;;;;2.72;1.58;;;8.50;99.90;;;;;;4997394;28;20087;-72
2022/10/10 05:56:11;;;;;;;3.65;1.83;;;8.50;99.90;;;;;;5014770;28;20595;-72
2022/10/10 05:58:37;;;;;;;5.03;2.50;;;8.50;99.90;;;;;;5014062;28;20506;-72
2022/10/10 06:01:06;;;;;;;5.47;1.95;;;8.50;99.90;;;;;;5007476;28;20034;-73
2022/10/10 06:03:32;;;;;;;4.20;1.95;;;8.50;99.90;;;;;;5011664;28;20032;-72
2022/10/10 06:05:59;;;;;;;4.43;1.88;;;8.50;99.90;;;;;;5012986;28;20038;-72
2022/10/10 06:08:25;;;;;;;4.45;2.47;;;8.50;99.90;;;;;;5011742;28;20212;-72
2022/10/10 06:10:51;;;;;;;4.82;2.00;;;8.50;99.90;;;;;;5013382;28;20053;-72
2022/10/10 06:13:18;;;;;;;2.88;1.75;;;8.50;99.90;;;;;;5008873;28;20081;-72
2022/10/10 06:15:43;;;;;;;3.70;1.83;;;8.50;99.90;;;;;;5013559;28;20053;-72
2022/10/10 06:18:10;;;;;;;3.00;1.60;;;8.50;99.90;;;;;;5014789;28;20048;-73
2022/10/10 06:20:37;;;;;;;4.72;2.05;;;8.50;99.90;;;;;;5007683;28;20592;-72
2022/10/10 06:23:03;;;;;;;4.55;1.98;;;8.50;99.90;;;;;;5005838;28;20044;-72
2022/10/10 06:25:29;;;;;;;4.30;1.67;;;8.50;99.90;;;;;;5014374;28;20044;-72
2022/10/10 06:27:55;;;;;;;8.88;2.17;;;8.50;99.90;;;;;;5010669;28;20038;-72
2022/10/10 06:30:21;;;;;;;3.35;1.80;;;8.50;99.90;;;;;;5008206;28;20046;-73
2022/10/10 06:32:46;;;;;;;7.82;1.88;;;8.50;99.90;;;;;;5016389;28;20056;-73
2022/10/10 06:35:12;;;;;;;5.35;1.85;;;8.50;99.90;;;;;;5010895;28;20399;-73
2022/10/10 06:37:38;;;;;;;4.50;2.25;;;8.60;99.90;;;;;;5010097;28;20244;-74
2022/10/10 06:40:04;;;;;;;3.90;1.98;;;8.60;99.90;;;;;;5015108;28;20132;-73
2022/10/10 06:42:29;;;;;;;3.58;1.70;;;8.60;99.90;;;;;;5007745;28;20445;-73
2022/10/10 06:44:55;;;;;;;3.92;1.45;;;8.60;99.90;;;;;;5010164;28;20037;-73
2022/10/10 06:47:20;;;;;;;3.58;2.30;;;8.60;99.90;;;;;;5007571;28;20075;-73
2022/10/10 06:49:46;;;;;;;5.22;2.35;;;8.60;99.90;;;;;;4996057;28;20072;-73
2022/10/10 06:52:11;;;;;;;5.95;2.05;;;8.70;99.90;;;;;;5006272;28;20408;-73
2022/10/10 06:54:37;;;;;;;6.50;2.58;;;8.70;99.90;;;;;;4997308;28;20069;-73
2022/10/10 06:57:03;;;;;;;4.22;2.10;;;8.70;99.90;;;;;;5005259;28;20478;-73
2022/10/10 06:59:28;;;;;;;3.67;2.05;;;8.70;99.90;;;;;;5010340;28;20088;-73
2022/10/10 07:01:54;;;;;;;3.38;1.83;;;8.70;99.90;;;;;;5010992;28;20119;-73
2022/10/10 07:04:19;;;;;;;3.63;1.70;;;8.80;99.90;;;;;;5008065;28;20045;-73
2022/10/10 07:06:45;;;;;;;6.65;1.83;;;8.80;99.90;;;;;;5014425;28;20042;-73
2022/10/10 07:09:11;;;;;;;5.85;2.17;;;8.80;99.90;;;;;;4992384;28;20061;-73
2022/10/10 07:11:36;;;;;;;4.25;2.30;;;8.90;99.90;;;;;;5010316;28;20046;-73
2022/10/10 07:14:02;;;;;;;5.25;2.10;;;8.90;99.90;;;;;;5008545;28;20168;-73
2022/10/10 07:16:28;;;;;;;4.72;1.90;;;9.00;99.90;;;;;;5027506;28;20037;-73
2022/10/10 07:18:53;;;;;;;5.60;2.45;;;9.00;99.90;;;;;;5025079;28;20045;-72
2022/10/10 07:21:19;;;;;;;2.88;2.10;;;9.00;99.90;;;;;;5009856;28;20153;-73
2022/10/10 07:23:45;;;;;;;3.33;2.13;;;9.10;99.90;;;;;;5011192;28;20107;-72
2022/10/10 07:26:12;;;;;;;5.53;2.05;;;9.10;99.90;;;;;;5007983;28;20445;-72
2022/10/10 07:28:39;;;;;;;4.90;2.47;;;9.10;99.90;;;;;;4989900;28;20200;-71
2022/10/10 07:31:09;;;;;;;4.57;2.10;;;9.20;99.90;;;;;;5008622;28;20099;-72
2022/10/10 07:33:44;;;;;;;3.70;2.30;;;9.20;99.90;;;;;;5010949;28;20279;-72
2022/10/10 07:36:10;;;;;;;4.13;2.05;;;9.20;99.90;;;;;;5008280;28;20160;-72
2022/10/10 07:38:37;;;;;;;5.22;1.92;;;9.20;99.90;;;;;;5011237;28;20525;-72
2022/10/10 07:41:12;;;;;;;5.47;2.47;;;9.20;99.90;;;;;;5013684;28;20049;-72
2022/10/10 07:43:38;;;;;;;;;;;9.30;99.90;;;;;;5011540;28;20045;-72
2022/10/10 07:46:05;;;;;;;3.53;2.17;;;9.30;99.90;;;;;;5021744;28;19967;-72
2022/10/10 07:48:31;;;;;;;3.70;2.25;;;9.30;99.90;;;;;;5018211;28;20129;-72
2022/10/10 07:50:57;;;;;;;5.10;2.83;;;9.30;99.90;;;;;;5020835;28;20041;-72
2022/10/10 07:53:23;;;;;;;4.57;2.63;;;9.30;99.90;;;;;;5002505;28;20095;-72
2022/10/10 07:55:49;;;;;;;4.43;1.90;;;9.30;99.90;;;;;;5022758;28;20087;-72
2022/10/10 07:58:14;;;;;;;6.35;2.22;;;9.40;99.90;;;;;;5022738;28;20041;-72
2022/10/10 08:00:41;;;;;;;4.13;1.95;;;9.40;99.90;;;;;;5023193;28;20038;-72
2022/10/10 08:03:07;;;;;;;4.85;2.20;;;9.40;99.90;;;;;;5022811;28;20025;-72
2022/10/10 08:05:33;;;;;;;4.68;2.25;;;9.50;99.90;;;;;;5021834;28;20041;-72
2022/10/10 08:07:59;;;;;;;4.47;2.00;;;9.50;99.90;;;;;;5037229;28;20045;-72
2022/10/10 08:10:24;;;;;;;3.25;1.80;;;9.60;99.90;;;;;;5037236;28;20049;-72
2022/10/10 08:12:50;;;;;;;5.13;2.80;;;9.60;99.90;;;;;;5023484;28;20037;-72
2022/10/10 08:15:16;;;;;;;4.50;2.22;;;9.70;99.90;;;;;;5023991;28;20735;-72
2022/10/10 08:17:41;;;;;;;3.50;2.15;;;9.70;99.90;;;;;;5021468;28;20426;-72
2022/10/10 08:20:07;;;;;;;6.93;2.50;;;9.70;99.90;;;;;;5021494;28;20044;-72
2022/10/10 08:22:33;;;;;;;5.70;2.75;;;9.80;99.90;;;;;;5020270;28;20045;-72
2022/10/10 08:24:59;;;;;;;5.20;2.38;;;9.90;99.90;;;;;;5006279;28;20037;-72
2022/10/10 08:27:24;;;;;;;3.90;2.20;;;9.90;99.90;;;;;;5019649;28;20805;-72
2022/10/10 08:29:50;;;;;;;6.78;3.03;;;10.00;99.90;;;;;;5037846;28;20041;-73
2022/10/10 08:32:16;;;;;;;5.40;2.63;;;10.00;99.90;;;;;;5021274;28;20056;-73
2022/10/10 08:34:42;;;;;;;5.82;3.10;;;10.10;99.90;;;;;;5019745;28;20417;-72
2022/10/10 08:37:07;;;;;;;5.40;2.47;;;10.20;99.90;;;;;;5003312;28;20100;-72
2022/10/10 08:39:33;;;;;;;3.42;2.05;;;10.20;99.90;;;;;;5022235;28;20045;-72
2022/10/10 08:42:00;;;;;;;4.28;2.33;;;10.20;99.90;;;;;;5009366;28;20091;-72
2022/10/10 08:44:31;;;;;;;4.68;2.10;;;10.30;99.90;;;;;;5018052;28;20394;-72
2022/10/10 08:47:11;;;;;;;6.47;2.13;;;10.30;99.90;;;;;;5003826;28;21830;-72
2022/10/10 08:49:43;;;;;;;4.53;2.65;;;10.40;99.90;;;;;;5039957;28;20033;-72
2022/10/10 08:52:26;;;;;;;5.38;2.83;;;10.30;99.90;;;;;;5020303;28;20040;-72
2022/10/10 08:54:53;;;;;;;7.60;2.75;;;10.40;99.90;;;;;;5002219;28;20052;-72
2022/10/10 08:57:29;;;;;;;3.67;2.15;;;10.50;99.90;;;;;;5018942;28;20472;-72
2022/10/10 09:00:04;;;;;;;3.45;2.20;;;10.50;99.90;;;;;;5019767;28;20033;-72
2022/10/10 09:02:34;;;;;;;5.75;2.45;;;10.60;99.90;;;;;;5020797;28;20038;-72
2022/10/10 09:04:59;;;;;;;4.82;2.25;;;10.60;99.90;;;;;;5021455;28;20358;-72
2022/10/10 09:07:46;;;;;;;4.05;2.25;;;10.70;99.90;;;;;;5021581;28;20611;-72
2022/10/10 09:10:14;;;;;;;4.38;2.35;;;10.80;99.90;;;;;;5020675;28;20050;-72
2022/10/10 09:13:16;;;;;;;4.07;2.47;;;10.90;99.90;;;;;;5034085;28;20045;-72
2022/10/10 09:15:59;;;;;;;6.32;2.72;;;11.00;99.90;;;;;;5002120;28;20049;-72
2022/10/10 09:18:47;;;;;;;5.43;3.10;;;11.10;99.90;;;;;;5021159;28;20042;-72
2022/10/10 09:21:31;;;;;;;5.70;2.70;;;11.10;99.90;;;;;;5020512;28;20068;-72
2022/10/10 09:24:16;;;;;;;5.18;2.80;;;11.20;99.90;;;;;;5020124;28;20115;-72
2022/10/10 09:26:50;;;;;;;3.72;2.30;;;11.30;99.90;;;;;;5018205;28;21109;-72
2022/10/10 09:29:39;;;;;;;8.20;2.15;;;11.40;99.90;;;;;;5010525;28;20132;-73
2022/10/10 09:32:21;;;;;;;4.82;1.92;;;11.40;99.90;;;;;;5016067;28;20518;-73
2022/10/10 09:35:01;;;;;;;3.92;2.10;;;11.50;99.90;;;;;;5020171;28;20060;-73
2022/10/10 09:37:36;;;;;;;5.60;2.55;;;11.50;99.90;;;;;;5020245;28;20582;-72
2022/10/10 09:40:22;;;;;;;5.90;2.78;;;11.50;99.90;;;;;;5016205;28;20038;-71
2022/10/10 09:42:48;;;;;;;6.97;2.83;;;11.60;99.90;;;;;;5001138;28;20293;-72
2022/10/10 09:45:24;;;;;;;4.72;2.67;;;11.60;99.90;;;;;;5016853;28;20364;-72
2022/10/10 09:47:53;;;;;;;5.07;2.50;;;11.70;99.90;;;;;;5015702;28;20049;-72
2022/10/10 09:50:20;;;;;;;5.40;2.75;;;11.80;99.90;;;;;;5017176;28;20041;-73
2022/10/10 09:52:47;;;;;;;4.25;2.13;;;11.80;99.90;;;;;;5021232;28;20041;-72
2022/10/10 09:55:36;;;;;;;8.60;3.28;;;12.00;99.90;;;;;;5019711;28;20085;-72
2022/10/10 09:58:26;;;;;;;6.15;2.72;;;12.00;99.90;;;;;;5020132;28;20056;-72
2022/10/10 10:00:54;;;;;;;5.22;2.70;;;12.20;99.90;;;;;;5018287;28;20490;-72
2022/10/10 10:03:22;;;;;;;5.55;2.03;;;12.30;99.90;;;;;;5022849;28;20034;-73
2022/10/10 10:06:00;;;;;;;4.60;2.42;;;12.40;99.90;;;;;;5019438;28;20124;-73
2022/10/10 10:08:32;;;;;;;4.20;2.35;;;12.40;99.90;;;;;;5017742;28;20192;-73
2022/10/10 10:10:59;;;;;;;4.65;2.70;;;12.50;99.90;;;;;;5017832;28;20118;-72
2022/10/10 10:13:31;;;;;;;3.72;2.08;;;12.50;99.90;;;;;;5007010;28;20483;-73
2022/10/10 10:16:05;;;;;;;4.72;2.38;;;12.50;99.90;;;;;;5017840;28;20056;-73
2022/10/10 10:18:38;;;;;;;6.32;3.17;;;12.50;99.90;;;;;;5016804;28;20042;-73
2022/10/10 10:21:07;;;;;;;4.10;2.15;;;12.50;99.90;;;;;;5023217;28;20443;-72
2022/10/10 10:23:58;;;;;;;5.57;2.92;;;12.60;99.90;;;;;;5021766;28;20399;-72
2022/10/10 10:26:43;;;;;;;5.72;2.50;;;12.60;99.90;;;;;;5021705;28;20179;-72
2022/10/10 10:29:30;;;;;;;3.92;2.80;;;12.70;99.90;;;;;;5005779;28;20044;-72
2022/10/10 10:32:06;;;;;;;10.82;4.40;;;12.70;99.90;;;;;;5019318;28;20053;-72
2022/10/10 10:34:31;;;;;;;;;;;12.70;99.90;;;;;;5004458;28;20562;-72
2022/10/10 10:37:18;;;;;;;5.50;3.28;;;12.80;99.90;;;;;;5019345;28;19921;-73
2022/10/10 10:40:24;;;;;;;12.60;4.47;;;12.80;99.90;;;;;;5024291;28;20033;-73
2022/10/10 10:43:08;;;;;;;6.63;2.60;;;12.90;99.90;;;;;;5023677;28;20128;-72
2022/10/10 10:46:01;;;;;;;7.30;2.83;;;13.00;99.90;;;;;;5019969;28;20033;-73
2022/10/10 10:48:35;;;;;;;5.57;2.97;;;13.10;99.90;;;;;;5006154;28;20041;-73
2022/10/10 10:51:45;;;;;;;4.30;2.40;;;13.10;99.90;;;;;;5002984;28;20057;-75
2022/10/10 10:54:52;;;;;;;4.70;2.35;;;13.20;99.90;;;;;;5017287;28;20057;-72
2022/10/10 10:57:39;;;;;;;3.53;1.90;;;13.30;99.90;;;;;;5017821;28;20384;-73
2022/10/10 11:00:09;;;;;;;4.13;2.28;;;13.40;99.90;;;;;;5004135;28;20124;-72
2022/10/10 11:02:45;;;;;;;5.18;2.20;;;13.40;99.90;;;;;;5004518;28;20030;-73
2022/10/10 11:05:31;;;;;;;4.45;2.53;;;13.50;99.90;;;;;;5021381;28;20033;-73
2022/10/10 11:08:07;;;;;;;3.55;2.70;;;13.50;99.90;;;;;;5036547;28;20499;-73
2022/10/10 11:10:52;;;;;;;5.50;2.70;;;13.50;99.90;;;;;;5021359;28;20122;-72
2022/10/10 11:13:42;;;;;;;6.45;2.42;;;13.50;99.90;;;;;;5020129;28;20057;-72
2022/10/10 11:16:11;;;;;;;5.40;2.22;;;13.50;99.90;;;;;;5019031;28;20060;-73
2022/10/10 11:19:15;;;;;;;5.57;2.50;;;13.50;99.90;;;;;;4999978;28;20042;-73
2022/10/10 11:21:48;;;;;;;4.47;2.20;;;13.50;99.90;;;;;;5012108;28;20038;-72
2022/10/10 11:24:35;;;;;;;5.75;1.95;;;13.50;99.90;;;;;;5019948;28;20052;-73
2022/10/10 11:27:07;;;;;;;4.72;1.50;;;13.60;99.90;;;;;;5018550;28;20025;-73
2022/10/10 11:29:57;;;;;;;3.60;2.13;;;13.50;99.90;;;;;;5019863;28;20592;-72
2022/10/10 11:32:46;;;;;;;4.22;2.15;;;13.50;99.90;;;;;;5016244;28;20391;-72
2022/10/10 11:35:34;;;;;;;4.03;1.75;;;13.50;99.90;;;;;;5016004;28;20058;-72
2022/10/10 11:38:13;;;;;;;2.97;1.60;;;13.50;99.90;;;;;;5018419;28;20491;-72
2022/10/10 11:40:51;;;;;;;5.57;2.15;;;13.50;99.90;;;;;;5022600;28;20029;-73
2022/10/10 11:43:43;;;;;;;6.72;2.20;;;13.50;99.90;;;;;;5019575;28;20442;-73
2022/10/10 11:46:22;;;;;;;3.15;1.90;;;13.50;99.90;;;;;;5020492;28;20064;-72
2022/10/10 11:49:03;;;;;;;5.55;2.38;;;13.40;99.90;;;;;;5019429;28;20053;-74
2022/10/10 11:51:56;;;;;;;9.23;2.17;;;13.40;99.90;;;;;;5018081;28;20460;-75
2022/10/10 11:54:45;;;;;;;4.05;2.13;;;13.40;99.90;;;;;;5019023;28;20045;-76
2022/10/10 11:57:40;;;;;;;4.47;2.40;;;13.40;99.90;;;;;;5019366;28;20141;-74
2022/10/10 12:00:13;;;;;;;4.65;2.00;;;13.30;99.90;;;;;;5019051;28;20037;-74
2022/10/10 12:02:41;;;;;;;4.32;1.95;;;13.30;99.90;;;;;;5018181;28;20037;-73
2022/10/10 12:05:19;;;;;;;3.13;1.80;;;13.20;99.90;;;;;;5018123;28;20041;-74
2022/10/10 12:07:56;;;;;;;4.25;2.25;;;13.20;99.90;;;;;;5008265;28;20104;-74
2022/10/10 12:10:39;;;;;;;5.20;1.83;;;13.20;99.90;;;;;;5017717;28;20065;-73
2022/10/10 12:13:35;;;;;;;3.45;1.92;;;13.20;99.90;;;;;;5014752;28;20041;-74
2022/10/10 12:16:06;;;;;;;3.67;1.90;;;13.20;99.90;;;;;;5018767;28;20825;-73
2022/10/10 12:18:38;;;;;;;2.78;1.67;;;13.30;99.90;;;;;;5019548;28;20034;-73
2022/10/10 12:21:19;;;;;;;4.22;1.85;;;13.30;99.90;;;;;;5021959;28;20045;-73
2022/10/10 12:24:22;;;;;;;4.70;2.10;;;13.30;99.90;;;;;;5018240;28;20080;-73
2022/10/10 12:26:54;;;;;;;7.60;2.35;;;13.30;99.90;;;;;;5016926;28;20053;-73
2022/10/10 12:29:44;;;;;;;4.55;2.15;;;13.30;99.90;;;;;;5002474;28;20046;-73
2022/10/10 12:32:13;;;;;;;5.38;2.15;;;13.30;99.90;;;;;;5015252;28;20352;-74
2022/10/10 12:34:42;;;;;;;4.80;2.67;;;13.30;99.90;;;;;;5020477;28;20049;-74
2022/10/10 12:37:26;;;;;;;5.68;2.28;;;13.40;99.90;;;;;;5021365;28;20044;-74
2022/10/10 12:40:04;;;;;;;7.20;2.63;;;13.30;99.90;;;;;;5015700;28;20037;-74
2022/10/10 12:43:00;;;;;;;4.68;2.03;;;13.30;99.90;;;;;;5019453;28;20084;-74
2022/10/10 12:45:29;;;;;;;5.22;2.47;;;13.40;99.90;;;;;;5019476;28;20037;-74
2022/10/10 12:48:16;;;;;;;6.35;2.58;;;13.40;99.90;;;;;;5004858;28;20048;-74
2022/10/10 12:50:52;;;;;;;6.75;2.60;;;13.40;99.90;;;;;;5020375;28;20791;-74
2022/10/10 12:53:18;;;;;;;6.32;2.33;;;13.30;99.90;;;;;;5022020;28;20116;-74
2022/10/10 12:55:46;;;;;;;5.13;2.53;;;13.30;99.90;;;;;;5020257;28;20033;-74
2022/10/10 12:58:24;;;;;;;5.00;2.65;;;13.30;99.90;;;;;;5035913;28;20038;-74
2022/10/10 13:00:50;;;;;;;5.45;2.75;;;13.30;99.90;;;;;;5016301;28;20050;-74
2022/10/10 13:03:29;;;;;;;4.25;2.45;;;13.20;99.90;;;;;;5015066;28;20136;-74
2022/10/10 13:05:59;;;;;;;7.85;3.10;;;13.20;99.90;;;;;;5022522;28;20029;-74
2022/10/10 13:08:27;;;;;;;7.63;2.92;;;13.20;99.90;;;;;;5002969;28;20053;-74
2022/10/10 13:11:11;;;;;;;5.10;3.05;;;13.20;99.90;;;;;;5019988;28;20095;-74
2022/10/10 13:13:38;;;;;;;5.35;2.60;;;13.20;99.90;;;;;;5013384;28;20053;-74
2022/10/10 13:16:16;;;;;;;5.93;2.55;;;13.20;99.90;;;;;;5021452;28;20038;-74